Snow/Ice From: 16-12-2017 16:00 Until: 17-12-2017 16:00 warning for: Snow/Ice Level: Yellow info button

Although rather usual in this region, locally or potentially dangerous phenomena are expected. (such as local winds, summer thunderstorms, rising streams or high waves) Be aware and pay attention to the latest weather updates, especially if you carry out activities exposed to weather or close to a stream or shoreline. 


Meteo18 Weather Cam more information Meteo18 Weather Cam


Thunder radar more information blitzortung!


warning for Snow/Ice more information rain snow radar


Visit our other weather sites:

Template documentation
and downloads

And another site



Weather Underground History page Text

Daily Summary for January 31, 2017 Units:  English    Metric   Both
« Previous Day
Next Day »
Daily Weekly Monthly Yearly Custom
  High: Low: Average:
Temperature: 54.1 °F 46 °F 48.9 °F
Dew Point: 52.5 °F 45.5 °F 48.2 °F
Humidity: 98 % 94 % 97 %
Wind Speed: 6 mph 0 mph 1.4 mph
Wind Gust: 10 mph - -
Wind:- - SW
Pressure: 30 in 30 in -
Precipitation: 0.03 in    
Historical Graphs
 
 
Tabular Data for January 31, 2017
Time Temperature Dew Point Pressure Wind Wind Speed Wind Gust Humidity Rainfall Rate (Hourly)
00:02 47.7 °F 47.1 °F 30 in SSW 3 mph 10 mph 98 % 0.04 in
00:12 47.1 °F 46.6 °F 30 in South 3 mph 8 mph 98 % 0.03 in
00:17 47.1 °F 46.6 °F 30 in South 3 mph 8 mph 98 % 0.02 in
00:22 47.1 °F 46.6 °F 30 in SSW 2 mph 8 mph 98 % 0.02 in
00:32 46.9 °F 46.4 °F 30 in SSE 1 mph 5 mph 98 % 0.02 in
00:37 47.1 °F 46.6 °F 30 in South 1 mph 3 mph 98 % 0.01 in
00:42 47.1 °F 46.6 °F 30 in Calm   3 mph 98 % 0.01 in
00:52 46.9 °F 46.4 °F 30 in SSW 1 mph 2 mph 98 % 0.01 in
01:02 46.9 °F 46.4 °F 30 in Calm   2 mph 98 % 0.01 in
01:12 46.9 °F 46.4 °F 30 in Calm   1 mph 98 % 0.01 in
01:17 46.9 °F 46.4 °F 30 in Calm   2 mph 98 % 0 in
01:22 46.9 °F 46.4 °F 30 in South 1 mph 2 mph 98 % 0 in
01:27 46.9 °F 46.4 °F 30 in SSW 1 mph 2 mph 98 % 0 in
01:32 46.8 °F 46.2 °F 30 in SSW 1 mph 2 mph 98 % 0 in
01:37 46.8 °F 46.2 °F 30 in SSW 2 mph 3 mph 98 % 0 in
01:42 46.8 °F 46.2 °F 30 in SW 3 mph 3 mph 98 % 0 in
01:52 46.9 °F 46.4 °F 30 in Calm   3 mph 98 % 0 in
01:57 46.9 °F 46.4 °F 30 in Calm   4 mph 98 % 0 in
02:02 46.8 °F 46.2 °F 30 in Calm   4 mph 98 % 0 in
02:12 46.8 °F 46.2 °F 30 in Calm   2 mph 98 % 0 in
02:17 46.8 °F 46.2 °F 30 in SSE 1 mph 2 mph 98 % 0 in
02:22 46.8 °F 46.2 °F 30 in South 2 mph 2 mph 98 % 0 in
02:32 46.8 °F 46.2 °F 30 in SW 3 mph 3 mph 98 % 0 in
02:37 46.8 °F 46.2 °F 30 in SW 2 mph 3 mph 98 % 0 in
02:42 46.6 °F 46 °F 30 in SSW 1 mph 3 mph 98 % 0 in
02:47 46.4 °F 45.9 °F 30 in SW 1 mph 4 mph 98 % 0 in
02:52 46.6 °F 46 °F 30 in Calm   4 mph 98 % 0 in
02:57 46.6 °F 46 °F 30 in Calm   2 mph 98 % 0 in
03:02 46.6 °F 46 °F 30 in South 1 mph 2 mph 98 % 0 in
03:12 46.6 °F 46 °F 30 in SW 1 mph 2 mph 98 % 0 in
03:17 46.6 °F 46 °F 30 in SW 1 mph 2 mph 98 % 0 in
03:22 46.6 °F 46 °F 30 in SSW 1 mph 2 mph 98 % 0 in
03:27 46.6 °F 46 °F 30 in SSW 2 mph 2 mph 98 % 0 in
03:32 46.6 °F 46 °F 30 in SSW 1 mph 2 mph 98 % 0 in
03:37 46.4 °F 45.9 °F 30 in SSW 1 mph 2 mph 98 % 0 in
03:42 46.4 °F 45.9 °F 30 in SSW 3 mph 3 mph 98 % 0 in
03:47 46.2 °F 45.7 °F 30 in SSW 1 mph 3 mph 98 % 0 in
03:52 46 °F 45.5 °F 30 in SSW 2 mph 3 mph 98 % 0 in
03:57 46 °F 45.5 °F 30 in SSW 2 mph 4 mph 98 % 0 in
04:02 46 °F 45.5 °F 30 in SSW 3 mph 5 mph 98 % 0 in
04:12 46 °F 45.5 °F 30 in SW 5 mph 5 mph 98 % 0 in
04:17 46 °F 45.5 °F 30 in SSW 3 mph 5 mph 98 % 0 in
04:22 46 °F 45.5 °F 30 in SSW 4 mph 5 mph 98 % 0 in
04:27 46 °F 45.5 °F 30 in SSW 3 mph 5 mph 98 % 0 in
04:32 46.2 °F 45.7 °F 30 in SSW 4 mph 5 mph 98 % 0 in
04:37 46.2 °F 45.7 °F 30 in SSW 3 mph 6 mph 98 % 0 in
04:42 46.2 °F 45.7 °F 30 in SSW 4 mph 6 mph 98 % 0 in
04:47 46.2 °F 45.7 °F 30 in South 3 mph 6 mph 98 % 0 in
04:52 46.2 °F 45.7 °F 30 in SSW 3 mph 6 mph 98 % 0 in
04:57 46.2 °F 45.7 °F 30 in SSW 2 mph 5 mph 98 % 0.01 in
05:02 46.6 °F 46 °F 30 in SSW 3 mph 5 mph 98 % 0.01 in
05:12 46.4 °F 45.9 °F 30 in SSW 1 mph 6 mph 98 % 0.01 in
05:17 46.4 °F 45.9 °F 30 in South 3 mph 5 mph 98 % 0.01 in
05:22 46.6 °F 46 °F 30 in South 2 mph 5 mph 98 % 0.01 in
05:27 46.6 °F 46 °F 30 in SSW 1 mph 4 mph 98 % 0.01 in
05:32 46.6 °F 46 °F 30 in South 2 mph 4 mph 98 % 0.01 in
05:37 46.6 °F 46 °F 30 in SSE 2 mph 3 mph 98 % 0.01 in
05:42 46.6 °F 46 °F 30 in Calm   3 mph 98 % 0.01 in
05:47 46.6 °F 46 °F 30 in SSE 1 mph 3 mph 98 % 0.01 in
05:52 46.6 °F 46 °F 30 in SSW 2 mph 3 mph 98 % 0.01 in
06:02 46.6 °F 46 °F 30 in South 2 mph 4 mph 98 % 0 in
06:07 46.6 °F 46 °F 30 in SSW 2 mph 4 mph 98 % 0 in
06:12 46.6 °F 46 °F 30 in SSW 3 mph 4 mph 98 % 0 in
06:17 46.6 °F 46 °F 30 in SSW 2 mph 4 mph 98 % 0.01 in
06:22 46.6 °F 46 °F 30 in SSW 2 mph 4 mph 98 % 0.01 in
06:32 46.6 °F 46 °F 30 in SSW 4 mph 4 mph 98 % 0.01 in
06:42 46.6 °F 46 °F 30 in SSW 2 mph 5 mph 98 % 0.01 in
06:47 46.6 °F 46 °F 30 in SSW 2 mph 5 mph 98 % 0.01 in
06:52 46.6 °F 46 °F 30 in SW 3 mph 5 mph 98 % 0.01 in
06:57 46.6 °F 46 °F 30 in SSW 2 mph 5 mph 98 % 0.01 in
07:02 46.6 °F 46 °F 30 in SSW 4 mph 5 mph 98 % 0.01 in
07:12 46.4 °F 45.9 °F 30 in SW 4 mph 4 mph 98 % 0.01 in
07:17 46.4 °F 45.9 °F 30 in SSW 3 mph 5 mph 98 % 0 in
07:22 46.4 °F 45.9 °F 30 in SW 3 mph 5 mph 98 % 0 in
07:32 46.6 °F 46 °F 30 in SSW 5 mph 6 mph 98 % 0 in
07:37 46.6 °F 46 °F 30 in SW 3 mph 6 mph 98 % 0 in
07:42 46.6 °F 46 °F 30 in SSW 3 mph 6 mph 98 % 0 in
07:47 46.6 °F 46 °F 30 in SW 4 mph 7 mph 98 % 0 in
07:52 46.6 °F 46 °F 30 in SW 3 mph 7 mph 98 % 0 in
07:57 46.6 °F 46 °F 30 in SSW 2 mph 7 mph 98 % 0 in
08:02 46.4 °F 45.9 °F 30 in SSW 1 mph 7 mph 98 % 0 in
08:07 46.6 °F 46 °F 30 in SSE 1 mph 4 mph 98 % 0 in
08:12 46.6 °F 46 °F 30 in Calm   4 mph 98 % 0 in
08:17 46.6 °F 46 °F 30 in SSE 1 mph 3 mph 98 % 0 in
08:22 46.6 °F 46 °F 30 in Calm   3 mph 98 % 0 in
08:32 46.6 °F 46 °F 30 in Calm   1 mph 98 % 0 in
08:37 46.6 °F 46 °F 30 in Calm   1 mph 98 % 0 in
08:42 46.6 °F 46 °F 30 in SSW 3 mph 3 mph 98 % 0 in
08:52 46.6 °F 46 °F 30 in SSW 1 mph 3 mph 98 % 0 in
08:57 46.6 °F 46 °F 30 in Calm   3 mph 98 % 0 in
09:02 46.6 °F 46 °F 30 in Calm   3 mph 98 % 0 in
09:12 46.4 °F 45.9 °F 30 in SSW 1 mph 2 mph 98 % 0 in
09:17 46.4 °F 45.9 °F 30 in SSW 1 mph 2 mph 98 % 0 in
09:22 46.4 °F 45.9 °F 30 in Calm   2 mph 98 % 0 in
09:32 46.4 °F 45.9 °F 30 in South 1 mph 2 mph 98 % 0 in
09:37 46.6 °F 46 °F 30 in Calm   2 mph 98 % 0 in
09:42 46.6 °F 46 °F 30 in Calm   2 mph 98 % 0 in
09:52 46.8 °F 46.2 °F 30 in Calm   1 mph 98 % 0 in
10:02 46.8 °F 46.2 °F 30 in SSW 1 mph 1 mph 98 % 0 in
10:07 46.9 °F 46.4 °F 30 in Calm   2 mph 98 % 0 in
10:12 46.9 °F 46.4 °F 30 in Calm   2 mph 98 % 0 in
10:17 46.9 °F 46.4 °F 30 in Calm   2 mph 98 % 0 in
10:22 47.1 °F 46.6 °F 30 in SSW 2 mph 2 mph 98 % 0 in
10:32 47.5 °F 46.9 °F 30 in SSE 2 mph 5 mph 98 % 0 in
10:42 47.7 °F 47.1 °F 30 in WSW 2 mph 5 mph 98 % 0 in
10:47 47.7 °F 47.1 °F 30 in SW 4 mph 6 mph 98 % 0.01 in
10:57 47.8 °F 47.3 °F 30 in SW 4 mph 7 mph 98 % 0.01 in
11:02 47.8 °F 47.3 °F 30 in SSW 4 mph 7 mph 98 % 0.01 in
11:07 48 °F 47.5 °F 30 in WSW 4 mph 6 mph 98 % 0.01 in
11:12 48 °F 47.5 °F 30 in SW 2 mph 6 mph 98 % 0.01 in
11:22 48 °F 47.5 °F 30 in WSW 2 mph 6 mph 98 % 0.01 in
11:32 48.4 °F 47.8 °F 30 in Calm   7 mph 98 % 0.01 in
11:37 48.4 °F 47.8 °F 30 in West 2 mph 6 mph 98 % 0.01 in
11:42 48.6 °F 48 °F 30 in SW 3 mph 6 mph 98 % 0.01 in
11:47 48.6 °F 48 °F 30 in SSW 4 mph 6 mph 98 % 0 in
11:52 48.7 °F 48.2 °F 30 in West 2 mph 6 mph 98 % 0 in
11:57 48.7 °F 48.2 °F 30 in SSW 4 mph 7 mph 98 % 0 in
12:02 48.9 °F 48.4 °F 30 in SW 2 mph 7 mph 98 % 0 in
12:07 48.9 °F 48.4 °F 30 in WSW 2 mph 7 mph 98 % 0 in
12:12 49.1 °F 48.6 °F 30 in SSW 4 mph 7 mph 98 % 0 in
12:17 49.3 °F 48.7 °F 30 in West 3 mph 6 mph 98 % 0 in
12:22 49.3 °F 48.7 °F 30 in WSW 2 mph 6 mph 98 % 0 in
12:27 49.3 °F 48.7 °F 30 in SW 2 mph 6 mph 98 % 0 in
12:32 49.3 °F 48.7 °F 30 in SW 5 mph 6 mph 98 % 0 in
12:42 49.3 °F 48.7 °F 30 in West 2 mph 7 mph 98 % 0 in
12:47 49.3 °F 48.7 °F 30 in WSW 5 mph 7 mph 98 % 0 in
12:52 49.3 °F 48.7 °F 30 in WSW 6 mph 7 mph 98 % 0 in
13:02 49.1 °F 48.6 °F 30 in West 3 mph 7 mph 98 % 0 in
13:12 49.1 °F 48.6 °F 30 in West 3 mph 7 mph 98 % 0 in
13:17 49.3 °F 48.7 °F 30 in WSW 5 mph 9 mph 98 % 0 in
13:22 49.5 °F 48.9 °F 30 in West 2 mph 9 mph 98 % 0 in
13:27 49.5 °F 48.9 °F 30 in WSW 3 mph 9 mph 98 % 0 in
13:32 49.6 °F 49.1 °F 30 in West 3 mph 9 mph 98 % 0 in
13:37 49.6 °F 49.1 °F 30 in West 2 mph 6 mph 98 % 0 in
13:42 49.8 °F 49.3 °F 30 in West 4 mph 6 mph 98 % 0 in
13:47 50.2 °F 49.6 °F 30 in WNW 2 mph 6 mph 98 % 0 in
13:52 50.4 °F 49.8 °F 30 in West 2 mph 6 mph 98 % 0 in
13:57 50.5 °F 50 °F 30 in West 2 mph 6 mph 98 % 0 in
14:02 50.9 °F 50.4 °F 30 in West 3 mph 5 mph 98 % 0 in
14:12 51.4 °F 50.9 °F 30 in WNW 3 mph 6 mph 98 % 0 in
14:17 51.8 °F 51.3 °F 30 in WNW 3 mph 6 mph 98 % 0 in
14:22 52.2 °F 51.6 °F 30 in West 3 mph 6 mph 98 % 0 in
14:32 52.3 °F 51.8 °F 30 in WNW 3 mph 5 mph 98 % 0 in
14:37 52.3 °F 51.8 °F 30 in Calm   5 mph 98 % 0 in
14:42 52.5 °F 52 °F 30 in NW 4 mph 5 mph 98 % 0 in
14:47 52.5 °F 52 °F 30 in WSW 3 mph 4 mph 98 % 0 in
14:52 52.7 °F 52.2 °F 30 in West 1 mph 4 mph 98 % 0 in
14:57 52.9 °F 52.3 °F 30 in Calm   4 mph 98 % 0 in
15:02 52.9 °F 52 °F 30 in West 3 mph 4 mph 97 % 0 in
15:12 52.9 °F 52 °F 30 in WSW 1 mph 5 mph 97 % 0 in
15:17 52.9 °F 51.8 °F 30 in WSW 5 mph 6 mph 96 % 0 in
15:22 52.9 °F 51.8 °F 30 in WSW 2 mph 7 mph 96 % 0 in
15:27 52.9 °F 51.4 °F 30 in SW 5 mph 7 mph 95 % 0 in
15:32 52.9 °F 51.4 °F 30 in WSW 3 mph 7 mph 95 % 0 in
15:37 52.9 °F 51.4 °F 30 in WSW 1 mph 7 mph 95 % 0 in
15:42 53.1 °F 51.6 °F 30 in WSW 3 mph 7 mph 95 % 0 in
15:47 53.1 °F 51.6 °F 30 in West 2 mph 7 mph 95 % 0 in
15:52 53.2 °F 51.8 °F 30 in WNW 3 mph 7 mph 95 % 0 in
15:57 53.2 °F 51.8 °F 30 in West 2 mph 4 mph 95 % 0 in
16:02 53.2 °F 51.8 °F 30 in Calm   4 mph 95 % 0 in
16:12 53.4 °F 52 °F 30 in Calm   4 mph 95 % 0 in
16:17 53.6 °F 52.2 °F 30 in Calm   3 mph 95 % 0 in
16:22 54 °F 52.5 °F 30 in Calm   2 mph 95 % 0 in
16:32 54.1 °F 52.5 °F 30 in Calm     94 % 0 in
16:37 54 °F 52.3 °F 30 in Calm     94 % 0 in
16:42 53.8 °F 52.2 °F 30 in Calm     94 % 0 in
16:47 53.8 °F 52.2 °F 30 in Calm     94 % 0 in
16:52 53.8 °F 52.2 °F 30 in Calm     94 % 0 in
16:57 53.8 °F 52.2 °F 30 in Calm     94 % 0 in
17:02 53.8 °F 52.2 °F 30 in Calm     94 % 0 in
17:12 53.6 °F 52.2 °F 30 in Calm   1 mph 95 % 0 in
17:17 53.6 °F 52.2 °F 30 in Calm   1 mph 95 % 0 in
17:22 53.6 °F 52.2 °F 30 in Calm     95 % 0 in
17:27 53.4 °F 51.8 °F 30 in Calm     94 % 0 in
17:32 53.4 °F 52 °F 30 in Calm     95 % 0 in
17:37 53.2 °F 51.8 °F 30 in Calm     95 % 0 in
17:42 53.2 °F 51.8 °F 30 in Calm     95 % 0 in
17:47 53.1 °F 51.6 °F 30 in Calm     95 % 0 in
17:52 53.1 °F 51.6 °F 30 in Calm     95 % 0 in
17:57 52.9 °F 51.4 °F 30 in Calm     95 % 0 in
18:02 52.7 °F 51.3 °F 30 in Calm     95 % 0 in
18:07 52.5 °F 51.1 °F 30 in Calm     95 % 0 in
18:12 52.5 °F 51.1 °F 30 in Calm     95 % 0 in
18:17 52.3 °F 51.3 °F 30 in Calm     96 % 0 in
18:22 52.3 °F 51.3 °F 30 in Calm     96 % 0 in
18:32 52 °F 50.9 °F 30 in Calm     96 % 0 in
18:37 51.6 °F 50.5 °F 30 in Calm     96 % 0 in
18:42 51.6 °F 50.5 °F 30 in Calm     96 % 0 in
18:52 51.3 °F 50.2 °F 30 in Calm     96 % 0 in
19:02 51.1 °F 50 °F 30 in Calm     96 % 0 in
19:07 50.9 °F 49.8 °F 30 in Calm     96 % 0 in
19:12 50.7 °F 49.8 °F 30 in Calm     97 % 0 in
19:17 50.7 °F 49.8 °F 30 in Calm     97 % 0 in
19:22 50.5 °F 49.6 °F 30 in Calm     97 % 0 in
19:27 50.4 °F 49.5 °F 30 in Calm     97 % 0 in
19:32 50.4 °F 49.5 °F 30 in Calm     97 % 0 in
19:37 50.2 °F 49.3 °F 30 in Calm     97 % 0 in
19:42 50 °F 49.1 °F 30 in Calm     97 % 0 in
19:52 49.8 °F 48.9 °F 30 in Calm   1 mph 97 % 0 in
19:57 49.8 °F 48.9 °F 30 in Calm     97 % 0 in
20:02 49.8 °F 48.9 °F 30 in Calm     97 % 0 in
20:12 49.8 °F 48.9 °F 30 in Calm     97 % 0 in
20:17 50 °F 49.5 °F 30 in Calm     98 % 0 in
20:22 50 °F 49.1 °F 30 in Calm     97 % 0 in
20:32 49.8 °F 48.9 °F 30 in Calm     97 % 0 in
20:42 50.2 °F 49.6 °F 30 in Calm     98 % 0 in
20:52 49.8 °F 48.9 °F 30 in Calm     97 % 0 in
20:57 49.8 °F 48.9 °F 30 in Calm     97 % 0 in
21:02 49.6 °F 48.7 °F 30 in Calm     97 % 0 in
21:12 49.6 °F 49.1 °F 30 in Calm     98 % 0 in
21:17 49.6 °F 49.1 °F 30 in Calm     98 % 0 in
21:22 49.6 °F 49.1 °F 30 in Calm     98 % 0 in
21:27 49.6 °F 48.7 °F 30 in Calm     97 % 0 in
21:32 49.3 °F 48.4 °F 30 in Calm     97 % 0 in
21:37 49.1 °F 48.2 °F 30 in Calm     97 % 0 in
21:42 48.9 °F 48 °F 30 in Calm     97 % 0 in
21:47 48.9 °F 48 °F 30 in Calm     97 % 0 in
21:52 48.9 °F 48.4 °F 30 in Calm     98 % 0 in
21:57 48.7 °F 48.2 °F 30 in Calm     98 % 0 in
22:02 48.7 °F 48.2 °F 30 in Calm     98 % 0 in
22:07 48.7 °F 48.2 °F 30 in Calm     98 % 0 in
22:12 48.7 °F 48.2 °F 30 in Calm     98 % 0 in
22:17 48.7 °F 48.2 °F 30 in Calm     98 % 0 in
22:22 48.7 °F 48.2 °F 30 in Calm     98 % 0 in
22:32 48.7 °F 48.2 °F 30 in Calm     98 % 0 in
22:37 48.6 °F 48 °F 30 in Calm     98 % 0 in
22:42 48.6 °F 48 °F 30 in Calm     98 % 0 in
22:47 48.6 °F 48 °F 30 in Calm     98 % 0 in
22:52 48.6 °F 48 °F 30 in Calm     98 % 0 in
22:57 48.7 °F 48.2 °F 30 in Calm     98 % 0 in
23:02 48.7 °F 48.2 °F 30 in Calm     98 % 0 in
23:07 48.7 °F 48.2 °F 30 in Calm     98 % 0 in
23:12 48.7 °F 48.2 °F 30 in Calm     98 % 0 in
23:17 48.7 °F 48.2 °F 30 in Calm     98 % 0 in
23:22 48.6 °F 48 °F 30 in Calm     98 % 0 in
23:27 48.6 °F 48 °F 30 in Calm     98 % 0 in
23:32 48.6 °F 48 °F 30 in Calm     98 % 0 in
23:37 48.6 °F 48 °F 30 in Calm     98 % 0 in
23:42 48.6 °F 48 °F 30 in Calm     98 % 0 in
23:47 48.6 °F 48 °F 30 in Calm     98 % 0 in
23:52 48.6 °F 48 °F 30 in Calm     98 % 0 in
23:57 48.4 °F 47.8 °F 30 in Calm     98 % 0 in
Meteo18
Compliments of Weather Underground - 4 mb

Script developed by  Jim McMurry - jmcmurry@mwt.net Adapted for the template by  Wim van der Kuil - Leuven-Template.eu

You find our weather info also at:

European Weather Network

Weather Underground

Equipment we use:

Weather-station
Davis Vue

Weather-program
Meteohub

Weather-server
Raspberry PI 2 B+

Provider
1 and 1

Davis Vue

Meteohub

Raspberry PI 2 B+

1 and 1